Overview Statistics Trail Chart Weather Telemetry Raw packets
 

This is the latest recevied weather packets stored in our database for station/object IN3MWE-10. If no packets are shown the sender has not sent any weather packets the latest 10 day(s).

<< 16 17 18 19 20 21 22 >>
Time Temp. Humidity Pressure Rain* Wind** Luminosity Snow
1788276026 32.22° C 34% 979.7 hPa - - - -
1788275127 36.11° C 30% 979.6 hPa - - - -
1788274233 35° C 35% 979.7 hPa - - - -
1788273327 34.44° C 35% 979.8 hPa - - - -
1788272422 37.78° C 26% 979.8 hPa - - - -
1788271522 33.33° C 35% 980.1 hPa - - - -
1788270622 37.22° C 26% 980.2 hPa - - - -
1788269722 38.33° C 25% 980.3 hPa - - - -
1788268821 36.67° C 26% 980.5 hPa - - - -
1788267921 36.11° C 27% 980.8 hPa - - - -
1788267021 36.11° C 27% 981 hPa - - - -
1788266121 33.89° C 31% 981.4 hPa - - - -
1788265221 34.44° C 29% 981.4 hPa - - - -
1788264321 33.89° C 27% 981.6 hPa - - - -
1788263420 32.22° C 28% 981.8 hPa - - - -
1788262520 31.11° C 31% 982 hPa - - - -
1788261620 30.56° C 31% 982.3 hPa - - - -
1788260720 30.56° C 32% 982.6 hPa - - - -
1788259820 30.56° C 33% 982.8 hPa - - - -
1788258920 29.44° C 37% 983 hPa - - - -
1788258019 30° C 36% 983.2 hPa - - - -
1788257119 28.33° C 38% 983.5 hPa - - - -
1788256219 27.22° C 42% 983.7 hPa - - - -
1788255319 27.22° C 43% 983.9 hPa - - - -
1788254419 26.11° C 47% 984.1 hPa - - - -

* Rain since midnight (hover to see other rain measurements)
** Current wind speed in m/s (hover to see current wind gust speed)